sensor_id;sensor_type;location;lat;lon;timestamp;P1;durP1;ratioP1;P2;durP2;ratioP2
57441;SDS011;43284;47.042;15.498;2024-01-15T00:01:28;73.60;;;17.17;;
57441;SDS011;43284;47.042;15.498;2024-01-15T00:03:54;65.53;;;16.63;;
57441;SDS011;43284;47.042;15.498;2024-01-15T00:06:19;54.30;;;16.38;;
57441;SDS011;43284;47.042;15.498;2024-01-15T00:08:45;56.97;;;15.37;;
57441;SDS011;43284;47.042;15.498;2024-01-15T00:11:11;57.03;;;17.27;;
57441;SDS011;43284;47.042;15.498;2024-01-15T00:13:36;60.50;;;15.87;;
57441;SDS011;43284;47.042;15.498;2024-01-15T00:16:02;56.57;;;17.73;;
57441;SDS011;43284;47.042;15.498;2024-01-15T00:18:27;58.88;;;17.48;;
57441;SDS011;43284;47.042;15.498;2024-01-15T00:20:53;61.13;;;15.43;;
57441;SDS011;43284;47.042;15.498;2024-01-15T00:23:18;61.27;;;16.63;;
57441;SDS011;43284;47.042;15.498;2024-01-15T00:25:44;54.53;;;15.82;;
57441;SDS011;43284;47.042;15.498;2024-01-15T00:28:09;59.37;;;15.27;;
57441;SDS011;43284;47.042;15.498;2024-01-15T00:30:35;54.43;;;17.97;;
57441;SDS011;43284;47.042;15.498;2024-01-15T00:33:00;70.37;;;18.30;;
57441;SDS011;43284;47.042;15.498;2024-01-15T00:35:26;59.70;;;17.63;;
57441;SDS011;43284;47.042;15.498;2024-01-15T00:37:52;52.67;;;17.53;;
57441;SDS011;43284;47.042;15.498;2024-01-15T00:40:18;56.03;;;16.20;;
57441;SDS011;43284;47.042;15.498;2024-01-15T00:42:43;55.93;;;17.37;;
57441;SDS011;43284;47.042;15.498;2024-01-15T00:45:09;57.63;;;17.83;;
57441;SDS011;43284;47.042;15.498;2024-01-15T00:47:34;52.37;;;15.57;;
57441;SDS011;43284;47.042;15.498;2024-01-15T00:50:00;64.73;;;17.37;;
57441;SDS011;43284;47.042;15.498;2024-01-15T00:52:26;64.77;;;18.50;;
57441;SDS011;43284;47.042;15.498;2024-01-15T00:54:51;61.63;;;17.10;;
57441;SDS011;43284;47.042;15.498;2024-01-15T00:57:17;59.60;;;17.77;;
57441;SDS011;43284;47.042;15.498;2024-01-15T00:59:44;70.33;;;17.40;;
57441;SDS011;43284;47.042;15.498;2024-01-15T01:02:12;55.07;;;16.07;;
57441;SDS011;43284;47.042;15.498;2024-01-15T01:04:38;61.63;;;16.57;;
57441;SDS011;43284;47.042;15.498;2024-01-15T01:07:03;57.50;;;18.33;;
57441;SDS011;43284;47.042;15.498;2024-01-15T01:09:29;59.07;;;18.53;;
57441;SDS011;43284;47.042;15.498;2024-01-15T01:11:55;59.27;;;16.40;;
57441;SDS011;43284;47.042;15.498;2024-01-15T01:14:21;58.83;;;17.40;;
57441;SDS011;43284;47.042;15.498;2024-01-15T01:16:47;57.40;;;17.97;;
57441;SDS011;43284;47.042;15.498;2024-01-15T01:19:13;56.70;;;18.07;;
57441;SDS011;43284;47.042;15.498;2024-01-15T01:21:38;65.43;;;17.73;;
57441;SDS011;43284;47.042;15.498;2024-01-15T01:24:04;64.88;;;16.77;;
57441;SDS011;43284;47.042;15.498;2024-01-15T01:26:30;64.97;;;17.87;;
57441;SDS011;43284;47.042;15.498;2024-01-15T01:28:56;66.20;;;17.93;;
57441;SDS011;43284;47.042;15.498;2024-01-15T01:31:22;68.37;;;17.83;;
57441;SDS011;43284;47.042;15.498;2024-01-15T01:33:48;60.25;;;18.13;;
57441;SDS011;43284;47.042;15.498;2024-01-15T01:36:14;69.97;;;19.70;;
57441;SDS011;43284;47.042;15.498;2024-01-15T01:38:40;76.30;;;18.87;;
57441;SDS011;43284;47.042;15.498;2024-01-15T01:41:06;58.27;;;16.83;;
57441;SDS011;43284;47.042;15.498;2024-01-15T01:43:32;61.35;;;18.55;;
57441;SDS011;43284;47.042;15.498;2024-01-15T01:45:58;60.20;;;18.05;;
57441;SDS011;43284;47.042;15.498;2024-01-15T01:48:26;61.53;;;17.97;;
57441;SDS011;43284;47.042;15.498;2024-01-15T01:50:52;60.92;;;16.75;;
57441;SDS011;43284;47.042;15.498;2024-01-15T01:53:20;63.75;;;17.20;;
57441;SDS011;43284;47.042;15.498;2024-01-15T01:55:46;65.40;;;19.67;;
57441;SDS011;43284;47.042;15.498;2024-01-15T01:58:13;66.10;;;18.48;;
57441;SDS011;43284;47.042;15.498;2024-01-15T02:00:39;65.55;;;17.17;;
57441;SDS011;43284;47.042;15.498;2024-01-15T02:03:05;59.70;;;16.83;;
57441;SDS011;43284;47.042;15.498;2024-01-15T02:05:31;67.93;;;18.13;;
57441;SDS011;43284;47.042;15.498;2024-01-15T02:07:57;61.00;;;17.73;;
57441;SDS011;43284;47.042;15.498;2024-01-15T02:10:22;64.60;;;16.17;;
57441;SDS011;43284;47.042;15.498;2024-01-15T02:12:48;61.70;;;16.93;;
57441;SDS011;43284;47.042;15.498;2024-01-15T02:15:14;72.23;;;16.97;;
57441;SDS011;43284;47.042;15.498;2024-01-15T02:17:59;66.33;;;17.10;;
57441;SDS011;43284;47.042;15.498;2024-01-15T02:20:33;59.33;;;16.45;;
57441;SDS011;43284;47.042;15.498;2024-01-15T02:25:42;57.27;;;16.27;;
57441;SDS011;43284;47.042;15.498;2024-01-15T02:28:15;62.83;;;17.48;;
57441;SDS011;43284;47.042;15.498;2024-01-15T02:30:43;54.27;;;16.83;;
57441;SDS011;43284;47.042;15.498;2024-01-15T02:33:09;50.40;;;15.70;;
57441;SDS011;43284;47.042;15.498;2024-01-15T02:35:35;52.60;;;15.37;;
57441;SDS011;43284;47.042;15.498;2024-01-15T02:38:02;54.50;;;15.00;;
57441;SDS011;43284;47.042;15.498;2024-01-15T02:40:31;61.17;;;17.33;;
57441;SDS011;43284;47.042;15.498;2024-01-15T02:42:56;52.07;;;16.77;;
57441;SDS011;43284;47.042;15.498;2024-01-15T02:45:22;46.23;;;15.17;;
57441;SDS011;43284;47.042;15.498;2024-01-15T02:47:48;58.40;;;18.03;;
57441;SDS011;43284;47.042;15.498;2024-01-15T02:50:14;48.47;;;15.40;;
57441;SDS011;43284;47.042;15.498;2024-01-15T02:52:39;54.80;;;16.07;;
57441;SDS011;43284;47.042;15.498;2024-01-15T02:55:05;65.57;;;17.47;;
57441;SDS011;43284;47.042;15.498;2024-01-15T02:57:31;56.13;;;16.67;;
57441;SDS011;43284;47.042;15.498;2024-01-15T02:59:56;55.70;;;17.03;;
57441;SDS011;43284;47.042;15.498;2024-01-15T03:02:22;67.70;;;17.67;;
57441;SDS011;43284;47.042;15.498;2024-01-15T03:04:47;64.37;;;18.50;;
57441;SDS011;43284;47.042;15.498;2024-01-15T03:07:13;57.50;;;17.30;;
57441;SDS011;43284;47.042;15.498;2024-01-15T03:09:38;66.00;;;16.63;;
57441;SDS011;43284;47.042;15.498;2024-01-15T03:12:04;53.67;;;17.17;;
57441;SDS011;43284;47.042;15.498;2024-01-15T03:14:30;48.23;;;15.23;;
57441;SDS011;43284;47.042;15.498;2024-01-15T03:16:58;54.80;;;15.37;;
57441;SDS011;43284;47.042;15.498;2024-01-15T03:19:25;47.67;;;14.33;;
57441;SDS011;43284;47.042;15.498;2024-01-15T03:21:51;62.10;;;18.20;;
57441;SDS011;43284;47.042;15.498;2024-01-15T03:24:17;65.70;;;16.90;;
57441;SDS011;43284;47.042;15.498;2024-01-15T03:26:42;52.90;;;16.90;;
57441;SDS011;43284;47.042;15.498;2024-01-15T03:29:08;47.60;;;15.00;;
57441;SDS011;43284;47.042;15.498;2024-01-15T03:31:33;52.37;;;15.83;;
57441;SDS011;43284;47.042;15.498;2024-01-15T03:33:59;60.07;;;14.50;;
57441;SDS011;43284;47.042;15.498;2024-01-15T03:36:24;66.20;;;17.37;;
57441;SDS011;43284;47.042;15.498;2024-01-15T03:38:50;53.00;;;16.53;;
57441;SDS011;43284;47.042;15.498;2024-01-15T03:41:18;46.73;;;13.93;;
57441;SDS011;43284;47.042;15.498;2024-01-15T03:43:44;57.00;;;15.70;;
57441;SDS011;43284;47.042;15.498;2024-01-15T03:46:09;39.27;;;14.97;;
57441;SDS011;43284;47.042;15.498;2024-01-15T03:48:35;43.70;;;12.93;;
57441;SDS011;43284;47.042;15.498;2024-01-15T03:51:01;52.83;;;14.63;;
57441;SDS011;43284;47.042;15.498;2024-01-15T03:53:29;44.53;;;13.73;;
57441;SDS011;43284;47.042;15.498;2024-01-15T03:55:54;45.13;;;14.60;;
57441;SDS011;43284;47.042;15.498;2024-01-15T03:58:20;50.07;;;14.03;;
57441;SDS011;43284;47.042;15.498;2024-01-15T04:00:45;43.60;;;13.97;;
57441;SDS011;43284;47.042;15.498;2024-01-15T04:03:11;54.17;;;14.93;;
57441;SDS011;43284;47.042;15.498;2024-01-15T04:05:36;44.90;;;15.10;;
57441;SDS011;43284;47.042;15.498;2024-01-15T04:08:03;49.10;;;13.57;;
57441;SDS011;43284;47.042;15.498;2024-01-15T04:10:29;43.17;;;13.70;;
57441;SDS011;43284;47.042;15.498;2024-01-15T04:12:55;49.67;;;15.50;;
57441;SDS011;43284;47.042;15.498;2024-01-15T04:15:21;49.87;;;13.93;;
57441;SDS011;43284;47.042;15.498;2024-01-15T04:17:46;46.08;;;15.45;;
57441;SDS011;43284;47.042;15.498;2024-01-15T04:20:11;57.90;;;15.77;;
57441;SDS011;43284;47.042;15.498;2024-01-15T04:22:37;53.47;;;16.23;;
57441;SDS011;43284;47.042;15.498;2024-01-15T04:25:03;57.00;;;17.13;;
57441;SDS011;43284;47.042;15.498;2024-01-15T04:27:29;51.73;;;15.83;;
57441;SDS011;43284;47.042;15.498;2024-01-15T04:29:54;66.50;;;17.70;;
57441;SDS011;43284;47.042;15.498;2024-01-15T04:32:20;64.75;;;18.05;;
57441;SDS011;43284;47.042;15.498;2024-01-15T04:34:46;63.60;;;18.87;;
57441;SDS011;43284;47.042;15.498;2024-01-15T04:37:13;67.97;;;17.10;;
57441;SDS011;43284;47.042;15.498;2024-01-15T04:39:38;52.63;;;14.20;;
57441;SDS011;43284;47.042;15.498;2024-01-15T04:42:04;56.93;;;16.57;;
57441;SDS011;43284;47.042;15.498;2024-01-15T04:44:30;60.03;;;16.47;;
57441;SDS011;43284;47.042;15.498;2024-01-15T04:46:55;47.63;;;15.43;;
57441;SDS011;43284;47.042;15.498;2024-01-15T04:49:21;60.73;;;15.47;;
57441;SDS011;43284;47.042;15.498;2024-01-15T04:51:46;52.73;;;16.07;;
57441;SDS011;43284;47.042;15.498;2024-01-15T04:54:12;65.67;;;17.60;;
57441;SDS011;43284;47.042;15.498;2024-01-15T04:56:37;51.23;;;14.87;;
57441;SDS011;43284;47.042;15.498;2024-01-15T04:59:03;59.70;;;14.17;;
57441;SDS011;43284;47.042;15.498;2024-01-15T05:01:32;55.93;;;15.53;;
57441;SDS011;43284;47.042;15.498;2024-01-15T05:04:00;67.97;;;15.67;;
57441;SDS011;43284;47.042;15.498;2024-01-15T05:06:26;51.57;;;15.47;;
57441;SDS011;43284;47.042;15.498;2024-01-15T05:08:51;57.17;;;17.23;;
57441;SDS011;43284;47.042;15.498;2024-01-15T05:11:17;54.37;;;16.87;;
57441;SDS011;43284;47.042;15.498;2024-01-15T05:13:43;48.77;;;15.77;;
57441;SDS011;43284;47.042;15.498;2024-01-15T05:16:08;63.20;;;17.33;;
57441;SDS011;43284;47.042;15.498;2024-01-15T05:18:34;68.60;;;17.50;;
57441;SDS011;43284;47.042;15.498;2024-01-15T05:20:59;62.77;;;16.70;;
57441;SDS011;43284;47.042;15.498;2024-01-15T05:23:25;61.83;;;18.50;;
57441;SDS011;43284;47.042;15.498;2024-01-15T05:25:50;60.97;;;17.73;;
57441;SDS011;43284;47.042;15.498;2024-01-15T05:28:16;60.17;;;15.20;;
57441;SDS011;43284;47.042;15.498;2024-01-15T05:30:42;77.63;;;19.70;;
57441;SDS011;43284;47.042;15.498;2024-01-15T05:33:07;51.57;;;14.80;;
57441;SDS011;43284;47.042;15.498;2024-01-15T05:35:33;56.77;;;16.70;;
57441;SDS011;43284;47.042;15.498;2024-01-15T05:37:59;44.83;;;15.80;;
57441;SDS011;43284;47.042;15.498;2024-01-15T05:40:25;53.73;;;15.80;;
57441;SDS011;43284;47.042;15.498;2024-01-15T05:42:50;57.87;;;15.67;;
57441;SDS011;43284;47.042;15.498;2024-01-15T05:45:16;53.27;;;15.27;;
57441;SDS011;43284;47.042;15.498;2024-01-15T05:47:42;48.03;;;16.37;;
57441;SDS011;43284;47.042;15.498;2024-01-15T05:50:09;49.77;;;16.33;;
57441;SDS011;43284;47.042;15.498;2024-01-15T05:52:35;58.27;;;14.80;;
57441;SDS011;43284;47.042;15.498;2024-01-15T05:55:00;60.87;;;17.07;;
57441;SDS011;43284;47.042;15.498;2024-01-15T05:57:26;47.63;;;15.53;;
57441;SDS011;43284;47.042;15.498;2024-01-15T05:59:51;62.83;;;15.13;;
57441;SDS011;43284;47.042;15.498;2024-01-15T06:02:17;60.17;;;17.43;;
57441;SDS011;43284;47.042;15.498;2024-01-15T06:04:43;46.90;;;15.40;;
57441;SDS011;43284;47.042;15.498;2024-01-15T06:07:08;46.00;;;15.30;;
57441;SDS011;43284;47.042;15.498;2024-01-15T06:09:36;50.53;;;12.87;;
57441;SDS011;43284;47.042;15.498;2024-01-15T06:12:03;52.17;;;13.93;;
57441;SDS011;43284;47.042;15.498;2024-01-15T06:14:29;42.73;;;13.50;;
57441;SDS011;43284;47.042;15.498;2024-01-15T06:16:55;64.67;;;19.17;;
57441;SDS011;43284;47.042;15.498;2024-01-15T06:19:20;49.13;;;16.03;;
57441;SDS011;43284;47.042;15.498;2024-01-15T06:21:46;47.20;;;13.93;;
57441;SDS011;43284;47.042;15.498;2024-01-15T06:24:11;45.63;;;14.47;;
57441;SDS011;43284;47.042;15.498;2024-01-15T06:26:38;53.23;;;15.50;;
57441;SDS011;43284;47.042;15.498;2024-01-15T06:29:04;38.03;;;11.87;;
57441;SDS011;43284;47.042;15.498;2024-01-15T06:31:30;48.07;;;12.90;;
57441;SDS011;43284;47.042;15.498;2024-01-15T06:33:55;48.90;;;14.37;;
57441;SDS011;43284;47.042;15.498;2024-01-15T06:36:21;46.43;;;12.57;;
57441;SDS011;43284;47.042;15.498;2024-01-15T06:38:46;43.20;;;13.43;;
57441;SDS011;43284;47.042;15.498;2024-01-15T06:41:12;33.33;;;11.90;;
57441;SDS011;43284;47.042;15.498;2024-01-15T06:43:38;44.43;;;12.07;;
57441;SDS011;43284;47.042;15.498;2024-01-15T06:46:03;58.10;;;13.37;;
57441;SDS011;43284;47.042;15.498;2024-01-15T06:48:29;49.13;;;12.70;;
57441;SDS011;43284;47.042;15.498;2024-01-15T06:50:54;32.43;;;11.40;;
57441;SDS011;43284;47.042;15.498;2024-01-15T06:53:20;35.60;;;13.43;;
57441;SDS011;43284;47.042;15.498;2024-01-15T06:55:46;38.33;;;12.97;;
57441;SDS011;43284;47.042;15.498;2024-01-15T06:58:11;38.63;;;11.80;;
57441;SDS011;43284;47.042;15.498;2024-01-15T07:00:37;37.07;;;11.70;;
57441;SDS011;43284;47.042;15.498;2024-01-15T07:03:03;35.57;;;10.30;;
57441;SDS011;43284;47.042;15.498;2024-01-15T07:05:31;44.23;;;13.00;;
57441;SDS011;43284;47.042;15.498;2024-01-15T07:08:00;33.20;;;11.53;;
57441;SDS011;43284;47.042;15.498;2024-01-15T07:10:25;44.33;;;12.00;;
57441;SDS011;43284;47.042;15.498;2024-01-15T07:12:51;32.77;;;11.67;;
57441;SDS011;43284;47.042;15.498;2024-01-15T07:15:23;37.30;;;12.63;;
57441;SDS011;43284;47.042;15.498;2024-01-15T07:17:48;39.80;;;10.97;;
57441;SDS011;43284;47.042;15.498;2024-01-15T07:20:14;34.47;;;10.00;;
57441;SDS011;43284;47.042;15.498;2024-01-15T07:22:39;44.13;;;13.63;;
57441;SDS011;43284;47.042;15.498;2024-01-15T07:25:05;33.53;;;12.20;;
57441;SDS011;43284;47.042;15.498;2024-01-15T07:27:31;39.97;;;12.67;;
57441;SDS011;43284;47.042;15.498;2024-01-15T07:29:57;39.20;;;11.83;;
57441;SDS011;43284;47.042;15.498;2024-01-15T07:32:23;41.33;;;13.77;;
57441;SDS011;43284;47.042;15.498;2024-01-15T07:34:49;35.50;;;12.10;;
57441;SDS011;43284;47.042;15.498;2024-01-15T07:37:15;33.50;;;11.73;;
57441;SDS011;43284;47.042;15.498;2024-01-15T07:39:40;30.50;;;10.30;;
57441;SDS011;43284;47.042;15.498;2024-01-15T07:42:06;39.73;;;12.73;;
57441;SDS011;43284;47.042;15.498;2024-01-15T07:44:32;39.13;;;11.73;;
57441;SDS011;43284;47.042;15.498;2024-01-15T07:46:58;50.70;;;15.10;;
57441;SDS011;43284;47.042;15.498;2024-01-15T07:49:23;44.63;;;15.93;;
57441;SDS011;43284;47.042;15.498;2024-01-15T07:51:52;50.20;;;14.17;;
57441;SDS011;43284;47.042;15.498;2024-01-15T07:54:17;45.97;;;12.53;;
57441;SDS011;43284;47.042;15.498;2024-01-15T07:57:01;49.30;;;13.80;;
57441;SDS011;43284;47.042;15.498;2024-01-15T07:59:30;45.97;;;13.33;;
57441;SDS011;43284;47.042;15.498;2024-01-15T08:01:58;44.07;;;13.30;;
57441;SDS011;43284;47.042;15.498;2024-01-15T08:04:24;50.57;;;14.03;;
57441;SDS011;43284;47.042;15.498;2024-01-15T08:06:49;39.60;;;11.73;;
57441;SDS011;43284;47.042;15.498;2024-01-15T08:09:15;42.63;;;13.53;;
57441;SDS011;43284;47.042;15.498;2024-01-15T08:11:41;45.33;;;13.17;;
57441;SDS011;43284;47.042;15.498;2024-01-15T08:14:07;46.80;;;15.03;;
57441;SDS011;43284;47.042;15.498;2024-01-15T08:16:33;53.80;;;15.67;;
57441;SDS011;43284;47.042;15.498;2024-01-15T08:18:59;50.27;;;15.73;;
57441;SDS011;43284;47.042;15.498;2024-01-15T08:21:24;44.33;;;14.33;;
57441;SDS011;43284;47.042;15.498;2024-01-15T08:23:50;47.67;;;14.10;;
57441;SDS011;43284;47.042;15.498;2024-01-15T08:26:16;46.47;;;15.40;;
57441;SDS011;43284;47.042;15.498;2024-01-15T08:28:41;42.47;;;14.13;;
57441;SDS011;43284;47.042;15.498;2024-01-15T08:31:07;41.67;;;14.20;;
57441;SDS011;43284;47.042;15.498;2024-01-15T08:33:32;47.60;;;15.30;;
57441;SDS011;43284;47.042;15.498;2024-01-15T08:36:00;41.63;;;12.80;;
57441;SDS011;43284;47.042;15.498;2024-01-15T08:38:26;39.03;;;13.30;;
57441;SDS011;43284;47.042;15.498;2024-01-15T08:40:51;39.22;;;13.18;;
57441;SDS011;43284;47.042;15.498;2024-01-15T08:43:21;32.80;;;12.77;;
57441;SDS011;43284;47.042;15.498;2024-01-15T08:45:47;42.42;;;12.88;;
57441;SDS011;43284;47.042;15.498;2024-01-15T08:48:13;43.22;;;14.77;;
57441;SDS011;43284;47.042;15.498;2024-01-15T08:50:38;41.95;;;14.13;;
57441;SDS011;43284;47.042;15.498;2024-01-15T08:53:04;41.22;;;12.55;;
57441;SDS011;43284;47.042;15.498;2024-01-15T08:55:30;39.63;;;11.52;;
57441;SDS011;43284;47.042;15.498;2024-01-15T08:57:56;39.20;;;12.50;;
57441;SDS011;43284;47.042;15.498;2024-01-15T09:00:21;38.08;;;13.38;;
57441;SDS011;43284;47.042;15.498;2024-01-15T09:02:47;28.77;;;11.23;;
57441;SDS011;43284;47.042;15.498;2024-01-15T09:05:12;47.08;;;14.05;;
57441;SDS011;43284;47.042;15.498;2024-01-15T09:07:38;37.70;;;12.85;;
57441;SDS011;43284;47.042;15.498;2024-01-15T09:10:04;61.05;;;16.75;;
57441;SDS011;43284;47.042;15.498;2024-01-15T09:12:29;53.90;;;16.60;;
57441;SDS011;43284;47.042;15.498;2024-01-15T09:14:55;73.55;;;18.08;;
57441;SDS011;43284;47.042;15.498;2024-01-15T09:17:21;60.70;;;18.05;;
57441;SDS011;43284;47.042;15.498;2024-01-15T09:19:48;55.17;;;16.65;;
57441;SDS011;43284;47.042;15.498;2024-01-15T09:22:14;49.78;;;15.73;;
57441;SDS011;43284;47.042;15.498;2024-01-15T09:24:43;56.55;;;16.58;;
57441;SDS011;43284;47.042;15.498;2024-01-15T09:27:09;55.92;;;15.77;;
57441;SDS011;43284;47.042;15.498;2024-01-15T09:29:35;48.65;;;15.23;;
57441;SDS011;43284;47.042;15.498;2024-01-15T09:32:05;43.47;;;14.82;;
57441;SDS011;43284;47.042;15.498;2024-01-15T09:34:32;43.38;;;14.90;;
57441;SDS011;43284;47.042;15.498;2024-01-15T09:36:58;47.10;;;13.00;;
57441;SDS011;43284;47.042;15.498;2024-01-15T09:39:25;40.80;;;14.02;;
57441;SDS011;43284;47.042;15.498;2024-01-15T09:41:51;46.88;;;13.57;;
57441;SDS011;43284;47.042;15.498;2024-01-15T09:44:17;44.10;;;13.38;;
57441;SDS011;43284;47.042;15.498;2024-01-15T09:46:44;39.38;;;12.48;;
57441;SDS011;43284;47.042;15.498;2024-01-15T09:49:10;52.20;;;15.15;;
57441;SDS011;43284;47.042;15.498;2024-01-15T09:51:36;50.13;;;16.15;;
57441;SDS011;43284;47.042;15.498;2024-01-15T09:54:04;43.22;;;15.35;;
57441;SDS011;43284;47.042;15.498;2024-01-15T09:56:30;51.63;;;16.80;;
57441;SDS011;43284;47.042;15.498;2024-01-15T09:58:57;48.97;;;16.35;;
57441;SDS011;43284;47.042;15.498;2024-01-15T10:01:23;52.97;;;16.65;;
57441;SDS011;43284;47.042;15.498;2024-01-15T10:03:49;41.03;;;15.05;;
57441;SDS011;43284;47.042;15.498;2024-01-15T10:06:16;49.58;;;15.85;;
57441;SDS011;43284;47.042;15.498;2024-01-15T10:08:43;43.95;;;15.13;;
57441;SDS011;43284;47.042;15.498;2024-01-15T10:11:13;37.78;;;14.05;;
57441;SDS011;43284;47.042;15.498;2024-01-15T10:13:39;50.75;;;14.05;;
57441;SDS011;43284;47.042;15.498;2024-01-15T10:16:05;44.50;;;14.98;;
57441;SDS011;43284;47.042;15.498;2024-01-15T10:18:31;48.10;;;12.73;;
57441;SDS011;43284;47.042;15.498;2024-01-15T10:20:57;44.15;;;13.70;;
57441;SDS011;43284;47.042;15.498;2024-01-15T10:23:23;36.92;;;13.13;;
57441;SDS011;43284;47.042;15.498;2024-01-15T10:25:49;35.25;;;11.98;;
57441;SDS011;43284;47.042;15.498;2024-01-15T10:28:16;31.67;;;12.05;;
57441;SDS011;43284;47.042;15.498;2024-01-15T10:30:44;48.70;;;13.32;;
57441;SDS011;43284;47.042;15.498;2024-01-15T10:33:10;33.45;;;10.00;;
57441;SDS011;43284;47.042;15.498;2024-01-15T10:35:37;17.58;;;6.45;;
57441;SDS011;43284;47.042;15.498;2024-01-15T10:38:03;24.58;;;7.72;;
57441;SDS011;43284;47.042;15.498;2024-01-15T10:40:30;16.55;;;6.32;;
57441;SDS011;43284;47.042;15.498;2024-01-15T10:42:56;18.92;;;6.90;;
57441;SDS011;43284;47.042;15.498;2024-01-15T10:45:22;23.02;;;8.02;;
57441;SDS011;43284;47.042;15.498;2024-01-15T10:47:48;31.13;;;10.02;;
57441;SDS011;43284;47.042;15.498;2024-01-15T10:50:14;28.45;;;9.65;;
57441;SDS011;43284;47.042;15.498;2024-01-15T10:52:40;27.13;;;10.13;;
57441;SDS011;43284;47.042;15.498;2024-01-15T10:55:07;29.45;;;9.82;;
57441;SDS011;43284;47.042;15.498;2024-01-15T10:57:34;28.23;;;10.13;;
57441;SDS011;43284;47.042;15.498;2024-01-15T11:00:00;38.25;;;10.35;;
57441;SDS011;43284;47.042;15.498;2024-01-15T11:02:29;26.70;;;9.32;;
57441;SDS011;43284;47.042;15.498;2024-01-15T11:04:55;29.02;;;8.73;;
57441;SDS011;43284;47.042;15.498;2024-01-15T11:07:21;34.10;;;9.88;;
57441;SDS011;43284;47.042;15.498;2024-01-15T11:09:49;29.75;;;9.68;;
57441;SDS011;43284;47.042;15.498;2024-01-15T11:12:16;25.70;;;9.30;;
57441;SDS011;43284;47.042;15.498;2024-01-15T11:14:46;25.92;;;9.52;;
57441;SDS011;43284;47.042;15.498;2024-01-15T11:17:12;31.75;;;10.30;;
57441;SDS011;43284;47.042;15.498;2024-01-15T11:19:48;24.75;;;9.02;;
57441;SDS011;43284;47.042;15.498;2024-01-15T11:24:55;24.67;;;8.45;;
57441;SDS011;43284;47.042;15.498;2024-01-15T11:30:09;15.35;;;6.45;;
57441;SDS011;43284;47.042;15.498;2024-01-15T11:32:36;16.52;;;6.25;;
57441;SDS011;43284;47.042;15.498;2024-01-15T11:35:06;16.20;;;7.13;;
57441;SDS011;43284;47.042;15.498;2024-01-15T11:40:23;18.85;;;6.75;;
57441;SDS011;43284;47.042;15.498;2024-01-15T11:43:04;14.40;;;5.72;;
57441;SDS011;43284;47.042;15.498;2024-01-15T11:45:31;19.73;;;6.45;;
57441;SDS011;43284;47.042;15.498;2024-01-15T11:50:39;20.65;;;7.57;;
57441;SDS011;43284;47.042;15.498;2024-01-15T11:53:11;15.85;;;6.15;;
57441;SDS011;43284;47.042;15.498;2024-01-15T11:55:44;11.73;;;4.78;;
57441;SDS011;43284;47.042;15.498;2024-01-15T11:58:10;13.38;;;5.38;;
57441;SDS011;43284;47.042;15.498;2024-01-15T12:00:43;14.15;;;6.15;;
57441;SDS011;43284;47.042;15.498;2024-01-15T12:03:10;13.15;;;5.35;;
57441;SDS011;43284;47.042;15.498;2024-01-15T12:05:39;12.43;;;5.43;;
57441;SDS011;43284;47.042;15.498;2024-01-15T12:08:07;10.18;;;4.88;;
57441;SDS011;43284;47.042;15.498;2024-01-15T12:10:36;13.63;;;5.55;;
57441;SDS011;43284;47.042;15.498;2024-01-15T12:13:16;14.55;;;5.35;;
57441;SDS011;43284;47.042;15.498;2024-01-15T12:15:45;14.52;;;5.50;;
57441;SDS011;43284;47.042;15.498;2024-01-15T12:18:12;15.07;;;5.55;;
57441;SDS011;43284;47.042;15.498;2024-01-15T12:20:39;14.60;;;5.82;;
57441;SDS011;43284;47.042;15.498;2024-01-15T12:23:07;17.15;;;5.82;;
57441;SDS011;43284;47.042;15.498;2024-01-15T12:25:35;14.35;;;5.28;;
57441;SDS011;43284;47.042;15.498;2024-01-15T12:28:01;11.75;;;5.22;;
57441;SDS011;43284;47.042;15.498;2024-01-15T12:30:27;17.60;;;5.68;;
57441;SDS011;43284;47.042;15.498;2024-01-15T12:32:54;12.75;;;5.15;;
57441;SDS011;43284;47.042;15.498;2024-01-15T12:35:20;16.05;;;5.45;;
57441;SDS011;43284;47.042;15.498;2024-01-15T12:37:45;12.98;;;4.80;;
57441;SDS011;43284;47.042;15.498;2024-01-15T12:40:12;14.80;;;5.10;;
57441;SDS011;43284;47.042;15.498;2024-01-15T12:42:39;16.15;;;5.90;;
57441;SDS011;43284;47.042;15.498;2024-01-15T12:45:05;17.90;;;6.22;;
57441;SDS011;43284;47.042;15.498;2024-01-15T12:47:32;15.88;;;6.65;;
57441;SDS011;43284;47.042;15.498;2024-01-15T12:49:58;16.30;;;5.35;;
57441;SDS011;43284;47.042;15.498;2024-01-15T12:52:26;15.15;;;5.68;;
57441;SDS011;43284;47.042;15.498;2024-01-15T12:54:53;18.88;;;6.25;;
57441;SDS011;43284;47.042;15.498;2024-01-15T12:57:21;21.13;;;6.63;;
57441;SDS011;43284;47.042;15.498;2024-01-15T12:59:48;18.13;;;7.03;;
57441;SDS011;43284;47.042;15.498;2024-01-15T13:02:14;28.80;;;8.93;;
57441;SDS011;43284;47.042;15.498;2024-01-15T13:04:43;21.17;;;6.82;;
57441;SDS011;43284;47.042;15.498;2024-01-15T13:07:08;18.02;;;6.55;;
57441;SDS011;43284;47.042;15.498;2024-01-15T13:09:34;14.32;;;6.22;;
57441;SDS011;43284;47.042;15.498;2024-01-15T13:12:01;14.27;;;5.82;;
57441;SDS011;43284;47.042;15.498;2024-01-15T13:14:27;14.93;;;5.43;;
57441;SDS011;43284;47.042;15.498;2024-01-15T13:16:53;14.73;;;6.43;;
57441;SDS011;43284;47.042;15.498;2024-01-15T13:19:19;14.48;;;6.13;;
57441;SDS011;43284;47.042;15.498;2024-01-15T13:21:47;18.35;;;6.88;;
57441;SDS011;43284;47.042;15.498;2024-01-15T13:24:15;13.68;;;5.10;;
57441;SDS011;43284;47.042;15.498;2024-01-15T13:26:43;19.42;;;5.68;;
57441;SDS011;43284;47.042;15.498;2024-01-15T13:29:09;18.00;;;5.88;;
57441;SDS011;43284;47.042;15.498;2024-01-15T13:31:34;15.57;;;5.95;;
57441;SDS011;43284;47.042;15.498;2024-01-15T13:34:00;14.13;;;5.55;;
57441;SDS011;43284;47.042;15.498;2024-01-15T13:36:26;15.82;;;5.50;;
57441;SDS011;43284;47.042;15.498;2024-01-15T13:38:52;13.73;;;5.20;;
57441;SDS011;43284;47.042;15.498;2024-01-15T13:41:19;19.23;;;8.10;;
57441;SDS011;43284;47.042;15.498;2024-01-15T13:43:50;21.27;;;6.63;;
57441;SDS011;43284;47.042;15.498;2024-01-15T13:46:18;12.40;;;5.95;;
57441;SDS011;43284;47.042;15.498;2024-01-15T13:48:45;14.15;;;5.80;;
57441;SDS011;43284;47.042;15.498;2024-01-15T13:51:10;15.20;;;5.28;;
57441;SDS011;43284;47.042;15.498;2024-01-15T13:53:39;15.88;;;6.35;;
57441;SDS011;43284;47.042;15.498;2024-01-15T13:56:05;16.75;;;6.28;;
57441;SDS011;43284;47.042;15.498;2024-01-15T13:58:32;18.60;;;6.18;;
57441;SDS011;43284;47.042;15.498;2024-01-15T14:01:01;22.20;;;7.35;;
57441;SDS011;43284;47.042;15.498;2024-01-15T14:03:28;14.98;;;5.72;;
57441;SDS011;43284;47.042;15.498;2024-01-15T14:05:54;14.48;;;5.85;;
57441;SDS011;43284;47.042;15.498;2024-01-15T14:08:20;12.80;;;6.13;;
57441;SDS011;43284;47.042;15.498;2024-01-15T14:10:45;12.65;;;4.72;;
57441;SDS011;43284;47.042;15.498;2024-01-15T14:13:11;13.30;;;5.53;;
57441;SDS011;43284;47.042;15.498;2024-01-15T14:15:37;13.80;;;4.72;;
57441;SDS011;43284;47.042;15.498;2024-01-15T14:18:05;16.80;;;4.72;;
57441;SDS011;43284;47.042;15.498;2024-01-15T14:20:31;9.00;;;4.18;;